sensor_id;sensor_type;location;lat;lon;timestamp;pressure;altitude;pressure_sealevel;temperature;humidity
20424;BME280;10371;49.042;8.002;2023-04-01T00:00:07;98469.38;;;9.93;92.80
20424;BME280;10371;49.042;8.002;2023-04-01T00:01:10;98465.13;;;9.92;92.54
20424;BME280;10371;49.042;8.002;2023-04-01T00:02:13;98468.72;;;9.91;92.71
20424;BME280;10371;49.042;8.002;2023-04-01T00:03:14;98467.41;;;9.87;92.63
20424;BME280;10371;49.042;8.002;2023-04-01T00:04:14;98462.66;;;9.82;92.89
20424;BME280;10371;49.042;8.002;2023-04-01T00:05:15;98468.53;;;9.84;93.09
20424;BME280;10371;49.042;8.002;2023-04-01T00:06:17;98471.25;;;9.82;93.05
20424;BME280;10371;49.042;8.002;2023-04-01T00:07:17;98471.94;;;9.84;93.18
20424;BME280;10371;49.042;8.002;2023-04-01T00:08:18;98474.22;;;9.88;93.48
20424;BME280;10371;49.042;8.002;2023-04-01T00:09:18;98477.50;;;9.90;93.15
20424;BME280;10371;49.042;8.002;2023-04-01T00:10:19;98469.06;;;9.96;92.96
20424;BME280;10371;49.042;8.002;2023-04-01T00:11:19;98477.53;;;9.98;92.85
20424;BME280;10371;49.042;8.002;2023-04-01T00:12:21;98482.75;;;9.98;92.55
20424;BME280;10371;49.042;8.002;2023-04-01T00:13:21;98468.47;;;10.02;92.27
20424;BME280;10371;49.042;8.002;2023-04-01T00:14:22;98473.22;;;10.06;92.18
20424;BME280;10371;49.042;8.002;2023-04-01T00:15:22;98483.28;;;10.10;92.01
20424;BME280;10371;49.042;8.002;2023-04-01T00:16:22;98465.53;;;10.05;91.64
20424;BME280;10371;49.042;8.002;2023-04-01T00:17:22;98466.56;;;10.12;91.75
20424;BME280;10371;49.042;8.002;2023-04-01T00:18:23;98465.44;;;10.15;91.67
20424;BME280;10371;49.042;8.002;2023-04-01T00:19:24;98476.97;;;10.12;91.53
20424;BME280;10371;49.042;8.002;2023-04-01T00:20:24;98470.66;;;10.15;91.40
20424;BME280;10371;49.042;8.002;2023-04-01T00:21:25;98466.94;;;10.17;91.17
20424;BME280;10371;49.042;8.002;2023-04-01T00:22:26;98473.44;;;10.21;91.02
20424;BME280;10371;49.042;8.002;2023-04-01T00:23:27;98476.03;;;10.21;90.75
20424;BME280;10371;49.042;8.002;2023-04-01T00:24:27;98472.78;;;10.19;90.96
20424;BME280;10371;49.042;8.002;2023-04-01T00:25:27;98475.22;;;10.21;90.93
20424;BME280;10371;49.042;8.002;2023-04-01T00:26:28;98465.13;;;10.18;90.55
20424;BME280;10371;49.042;8.002;2023-04-01T00:27:28;98467.13;;;10.24;91.07
20424;BME280;10371;49.042;8.002;2023-04-01T00:28:29;98472.19;;;10.25;90.66
20424;BME280;10371;49.042;8.002;2023-04-01T00:29:30;98469.88;;;10.22;90.49
20424;BME280;10371;49.042;8.002;2023-04-01T00:30:30;98469.06;;;10.22;90.72
20424;BME280;10371;49.042;8.002;2023-04-01T00:31:31;98468.91;;;10.23;90.86
20424;BME280;10371;49.042;8.002;2023-04-01T00:32:31;98478.06;;;10.27;90.73
20424;BME280;10371;49.042;8.002;2023-04-01T00:33:31;98478.72;;;10.29;90.35
20424;BME280;10371;49.042;8.002;2023-04-01T00:34:32;98478.72;;;10.29;90.67
20424;BME280;10371;49.042;8.002;2023-04-01T00:35:32;98475.13;;;10.31;90.84
20424;BME280;10371;49.042;8.002;2023-04-01T00:36:32;98473.19;;;10.33;91.02
20424;BME280;10371;49.042;8.002;2023-04-01T00:37:35;98474.19;;;10.32;90.78
20424;BME280;10371;49.042;8.002;2023-04-01T00:38:37;98477.09;;;10.28;90.83
20424;BME280;10371;49.042;8.002;2023-04-01T00:39:38;98473.00;;;10.26;90.87
20424;BME280;10371;49.042;8.002;2023-04-01T00:40:42;98472.50;;;10.22;90.80
20424;BME280;10371;49.042;8.002;2023-04-01T00:41:42;98475.72;;;10.24;90.84
20424;BME280;10371;49.042;8.002;2023-04-01T00:42:43;98474.09;;;10.23;91.05
20424;BME280;10371;49.042;8.002;2023-04-01T00:43:46;98473.31;;;10.23;90.98
20424;BME280;10371;49.042;8.002;2023-04-01T00:44:52;98472.03;;;10.27;91.02
20424;BME280;10371;49.042;8.002;2023-04-01T00:45:52;98482.72;;;10.24;91.12
20424;BME280;10371;49.042;8.002;2023-04-01T00:46:52;98482.28;;;10.28;91.80
20424;BME280;10371;49.042;8.002;2023-04-01T00:47:54;98477.09;;;10.28;91.85
20424;BME280;10371;49.042;8.002;2023-04-01T00:48:55;98468.31;;;10.29;92.20
20424;BME280;10371;49.042;8.002;2023-04-01T00:49:55;98465.31;;;10.24;92.56
20424;BME280;10371;49.042;8.002;2023-04-01T00:51:14;98466.13;;;10.25;92.18
20424;BME280;10371;49.042;8.002;2023-04-01T00:52:19;98467.66;;;10.27;91.66
20424;BME280;10371;49.042;8.002;2023-04-01T00:53:22;98460.69;;;10.28;91.62
20424;BME280;10371;49.042;8.002;2023-04-01T00:54:25;98466.88;;;10.35;91.29
20424;BME280;10371;49.042;8.002;2023-04-01T00:55:28;98448.84;;;10.34;91.25
20424;BME280;10371;49.042;8.002;2023-04-01T00:56:34;98459.56;;;10.39;90.74
20424;BME280;10371;49.042;8.002;2023-04-01T00:57:37;98452.59;;;10.39;90.26
20424;BME280;10371;49.042;8.002;2023-04-01T00:58:41;98458.78;;;10.46;89.62
20424;BME280;10371;49.042;8.002;2023-04-01T00:59:46;98451.63;;;10.40;89.56
20424;BME280;10371;49.042;8.002;2023-04-01T01:00:48;98441.88;;;10.42;90.21
20424;BME280;10371;49.042;8.002;2023-04-01T01:01:51;98443.84;;;10.48;89.61
20424;BME280;10371;49.042;8.002;2023-04-01T01:02:51;98440.91;;;10.43;89.27
20424;BME280;10371;49.042;8.002;2023-04-01T01:03:52;98448.84;;;10.42;89.38
20424;BME280;10371;49.042;8.002;2023-04-01T01:04:52;98449.50;;;10.44;88.95
20424;BME280;10371;49.042;8.002;2023-04-01T01:06:10;98454.72;;;10.44;88.63
20424;BME280;10371;49.042;8.002;2023-04-01T01:08:56;98444.16;;;10.45;89.09
20424;BME280;10371;49.042;8.002;2023-04-01T01:10:19;98458.31;;;10.43;88.95
20424;BME280;10371;49.042;8.002;2023-04-01T01:11:29;98450.50;;;10.43;89.04
20424;BME280;10371;49.042;8.002;2023-04-01T01:14:11;98452.63;;;10.47;88.08
20424;BME280;10371;49.042;8.002;2023-04-01T01:16:30;98429.81;;;10.41;88.41
20424;BME280;10371;49.042;8.002;2023-04-01T01:17:58;98441.91;;;10.50;88.41
20424;BME280;10371;49.042;8.002;2023-04-01T01:19:19;98424.47;;;10.43;88.47
20424;BME280;10371;49.042;8.002;2023-04-01T01:23:06;98424.28;;;10.36;89.25
20424;BME280;10371;49.042;8.002;2023-04-01T01:24:35;98428.31;;;10.31;89.56
20424;BME280;10371;49.042;8.002;2023-04-01T01:27:11;98438.09;;;10.28;90.23
20424;BME280;10371;49.042;8.002;2023-04-01T01:36:31;98427.81;;;10.27;89.68
20424;BME280;10371;49.042;8.002;2023-04-01T01:37:35;98435.47;;;10.28;89.53
20424;BME280;10371;49.042;8.002;2023-04-01T01:38:37;98436.66;;;10.34;89.83
20424;BME280;10371;49.042;8.002;2023-04-01T01:39:39;98432.72;;;10.30;89.90
20424;BME280;10371;49.042;8.002;2023-04-01T01:40:42;98435.47;;;10.28;89.90
20424;BME280;10371;49.042;8.002;2023-04-01T01:41:45;98437.69;;;10.23;89.92
20424;BME280;10371;49.042;8.002;2023-04-01T01:42:52;98424.84;;;10.22;89.95
20424;BME280;10371;49.042;8.002;2023-04-01T01:43:56;98430.56;;;10.25;89.87
20424;BME280;10371;49.042;8.002;2023-04-01T01:45:00;98431.09;;;10.29;89.89
20424;BME280;10371;49.042;8.002;2023-04-01T01:46:06;98425.00;;;10.20;89.81
20424;BME280;10371;49.042;8.002;2023-04-01T01:47:09;98423.56;;;10.26;89.81
20424;BME280;10371;49.042;8.002;2023-04-01T01:48:10;98428.41;;;10.21;90.02
20424;BME280;10371;49.042;8.002;2023-04-01T01:49:12;98434.94;;;10.25;90.05
20424;BME280;10371;49.042;8.002;2023-04-01T01:50:15;98428.50;;;10.29;89.76
20424;BME280;10371;49.042;8.002;2023-04-01T01:51:17;98431.91;;;10.29;89.58
20424;BME280;10371;49.042;8.002;2023-04-01T01:52:18;98440.06;;;10.35;89.40
20424;BME280;10371;49.042;8.002;2023-04-01T01:53:19;98412.72;;;10.31;88.98
20424;BME280;10371;49.042;8.002;2023-04-01T01:54:19;98420.50;;;10.31;88.29
20424;BME280;10371;49.042;8.002;2023-04-01T01:55:28;98428.84;;;10.34;88.04
20424;BME280;10371;49.042;8.002;2023-04-01T01:56:30;98425.13;;;10.37;87.79
20424;BME280;10371;49.042;8.002;2023-04-01T01:57:36;98421.88;;;10.43;87.50
20424;BME280;10371;49.042;8.002;2023-04-01T01:58:42;98419.59;;;10.40;87.19
20424;BME280;10371;49.042;8.002;2023-04-01T01:59:44;98419.59;;;10.40;87.28
20424;BME280;10371;49.042;8.002;2023-04-01T02:01:07;98430.63;;;10.42;87.47
20424;BME280;10371;49.042;8.002;2023-04-01T02:02:11;98418.13;;;10.37;87.18
20424;BME280;10371;49.042;8.002;2023-04-01T02:03:13;98422.81;;;10.42;87.27
20424;BME280;10371;49.042;8.002;2023-04-01T02:04:16;98425.44;;;10.42;87.15
20424;BME280;10371;49.042;8.002;2023-04-01T02:05:20;98420.09;;;10.43;87.00
20424;BME280;10371;49.042;8.002;2023-04-01T02:06:23;98424.78;;;10.40;86.87
20424;BME280;10371;49.042;8.002;2023-04-01T02:07:28;98418.63;;;10.41;87.19
20424;BME280;10371;49.042;8.002;2023-04-01T02:09:55;98421.66;;;10.36;87.46
20424;BME280;10371;49.042;8.002;2023-04-01T02:10:59;98411.94;;;10.38;87.18
20424;BME280;10371;49.042;8.002;2023-04-01T02:12:08;98423.34;;;10.45;87.16
20424;BME280;10371;49.042;8.002;2023-04-01T02:13:24;98428.06;;;10.50;86.89
20424;BME280;10371;49.042;8.002;2023-04-01T02:14:29;98423.84;;;10.49;87.02
20424;BME280;10371;49.042;8.002;2023-04-01T02:15:37;98418.28;;;10.44;86.91
20424;BME280;10371;49.042;8.002;2023-04-01T02:17:06;98426.59;;;10.39;86.97
20424;BME280;10371;49.042;8.002;2023-04-01T02:18:07;98428.03;;;10.34;87.55
20424;BME280;10371;49.042;8.002;2023-04-01T02:19:10;98430.50;;;10.43;87.52
20424;BME280;10371;49.042;8.002;2023-04-01T02:20:15;98432.91;;;10.37;87.54
20424;BME280;10371;49.042;8.002;2023-04-01T02:21:19;98423.31;;;10.37;87.64
20424;BME280;10371;49.042;8.002;2023-04-01T02:22:26;98422.50;;;10.37;87.74
20424;BME280;10371;49.042;8.002;2023-04-01T02:23:27;98414.03;;;10.35;87.63
20424;BME280;10371;49.042;8.002;2023-04-01T02:24:30;98416.66;;;10.35;88.25
20424;BME280;10371;49.042;8.002;2023-04-01T02:25:35;98416.66;;;10.35;88.27
20424;BME280;10371;49.042;8.002;2023-04-01T02:26:36;98415.16;;;10.32;88.24
20424;BME280;10371;49.042;8.002;2023-04-01T02:27:37;98414.50;;;10.30;87.97
20424;BME280;10371;49.042;8.002;2023-04-01T02:28:38;98415.63;;;10.27;87.67
20424;BME280;10371;49.042;8.002;2023-04-01T02:29:40;98414.28;;;10.23;88.00
20424;BME280;10371;49.042;8.002;2023-04-01T02:30:41;98412.50;;;10.24;88.25
20424;BME280;10371;49.042;8.002;2023-04-01T02:31:42;98418.03;;;10.21;88.30
20424;BME280;10371;49.042;8.002;2023-04-01T02:32:44;98414.44;;;10.22;88.37
20424;BME280;10371;49.042;8.002;2023-04-01T02:33:47;98412.50;;;10.24;88.19
20424;BME280;10371;49.042;8.002;2023-04-01T02:34:48;98413.63;;;10.21;88.28
20424;BME280;10371;49.042;8.002;2023-04-01T02:35:48;98413.94;;;10.18;88.25
20424;BME280;10371;49.042;8.002;2023-04-01T02:36:50;98426.47;;;10.23;88.03
20424;BME280;10371;49.042;8.002;2023-04-01T02:37:52;98409.91;;;10.24;87.90
20424;BME280;10371;49.042;8.002;2023-04-01T02:38:54;98406.28;;;10.17;87.62
20424;BME280;10371;49.042;8.002;2023-04-01T02:40:00;98406.13;;;10.18;87.77
20424;BME280;10371;49.042;8.002;2023-04-01T02:41:02;98403.53;;;10.18;87.55
20424;BME280;10371;49.042;8.002;2023-04-01T02:42:03;98407.13;;;10.17;87.55
20424;BME280;10371;49.042;8.002;2023-04-01T02:43:03;98416.91;;;10.23;87.18
20424;BME280;10371;49.042;8.002;2023-04-01T02:44:04;98403.22;;;10.21;87.26
20424;BME280;10371;49.042;8.002;2023-04-01T02:45:05;98405.81;;;10.21;87.03
20424;BME280;10371;49.042;8.002;2023-04-01T02:46:06;98414.59;;;10.20;87.01
20424;BME280;10371;49.042;8.002;2023-04-01T02:47:07;98413.81;;;10.20;87.15
20424;BME280;10371;49.042;8.002;2023-04-01T02:48:07;98412.81;;;10.21;87.53
20424;BME280;10371;49.042;8.002;2023-04-01T02:49:08;98406.94;;;10.19;87.45
20424;BME280;10371;49.042;8.002;2023-04-01T02:50:08;98414.75;;;10.19;87.61
20424;BME280;10371;49.042;8.002;2023-04-01T02:51:09;98407.16;;;10.25;87.58
20424;BME280;10371;49.042;8.002;2023-04-01T02:52:09;98410.78;;;10.33;87.36
20424;BME280;10371;49.042;8.002;2023-04-01T02:53:09;98413.88;;;10.36;87.31
20424;BME280;10371;49.042;8.002;2023-04-01T02:54:10;98414.34;;;10.32;87.18
20424;BME280;10371;49.042;8.002;2023-04-01T02:55:10;98411.59;;;10.33;86.92
20424;BME280;10371;49.042;8.002;2023-04-01T02:56:10;98415.31;;;10.31;87.20
20424;BME280;10371;49.042;8.002;2023-04-01T02:57:10;98420.69;;;10.29;87.56
20424;BME280;10371;49.042;8.002;2023-04-01T02:58:11;98416.78;;;10.33;87.65
20424;BME280;10371;49.042;8.002;2023-04-01T02:59:11;98424.75;;;10.32;87.53
20424;BME280;10371;49.042;8.002;2023-04-01T03:00:12;98414.03;;;10.35;87.42
20424;BME280;10371;49.042;8.002;2023-04-01T03:01:13;98427.03;;;10.35;87.53
20424;BME280;10371;49.042;8.002;2023-04-01T03:02:14;98422.66;;;10.35;87.75
20424;BME280;10371;49.042;8.002;2023-04-01T03:03:15;98433.38;;;10.32;87.88
20424;BME280;10371;49.042;8.002;2023-04-01T03:04:15;98426.56;;;10.31;87.83
20424;BME280;10371;49.042;8.002;2023-04-01T03:05:15;98428.63;;;10.27;87.93
20424;BME280;10371;49.042;8.002;2023-04-01T03:06:16;98430.09;;;10.30;88.24
20424;BME280;10371;49.042;8.002;2023-04-01T03:07:17;98425.56;;;10.32;88.56
20424;BME280;10371;49.042;8.002;2023-04-01T03:08:17;98435.84;;;10.34;88.04
20424;BME280;10371;49.042;8.002;2023-04-01T03:09:17;98435.00;;;10.33;87.92
20424;BME280;10371;49.042;8.002;2023-04-01T03:10:18;98420.16;;;10.25;88.21
20424;BME280;10371;49.042;8.002;2023-04-01T03:11:18;98429.97;;;10.32;88.61
20424;BME280;10371;49.042;8.002;2023-04-01T03:12:18;98431.09;;;10.29;89.37
20424;BME280;10371;49.042;8.002;2023-04-01T03:13:18;98430.88;;;10.22;90.48
20424;BME280;10371;49.042;8.002;2023-04-01T03:14:19;98429.91;;;10.23;90.82
20424;BME280;10371;49.042;8.002;2023-04-01T03:15:19;98434.44;;;10.21;91.07
20424;BME280;10371;49.042;8.002;2023-04-01T03:16:20;98438.50;;;10.24;91.30
20424;BME280;10371;49.042;8.002;2023-04-01T03:17:20;98433.75;;;10.19;92.16
20424;BME280;10371;49.042;8.002;2023-04-01T03:18:20;98433.94;;;10.18;93.00
20424;BME280;10371;49.042;8.002;2023-04-01T03:19:20;98437.97;;;10.12;93.79
20424;BME280;10371;49.042;8.002;2023-04-01T03:20:21;98435.19;;;10.14;94.14
20424;BME280;10371;49.042;8.002;2023-04-01T03:21:23;98437.16;;;10.12;94.46
20424;BME280;10371;49.042;8.002;2023-04-01T03:22:23;98432.72;;;10.04;95.40
20424;BME280;10371;49.042;8.002;2023-04-01T03:23:24;98433.19;;;9.99;96.34
20424;BME280;10371;49.042;8.002;2023-04-01T03:24:24;98436.91;;;9.97;96.37
20424;BME280;10371;49.042;8.002;2023-04-01T03:25:25;98429.72;;;9.91;96.74
20424;BME280;10371;49.042;8.002;2023-04-01T03:26:25;98433.81;;;9.93;96.67
20424;BME280;10371;49.042;8.002;2023-04-01T03:27:27;98433.81;;;9.93;97.29
20424;BME280;10371;49.042;8.002;2023-04-01T03:28:27;98433.13;;;9.91;97.59
20424;BME280;10371;49.042;8.002;2023-04-01T03:29:27;98425.50;;;9.90;97.62
20424;BME280;10371;49.042;8.002;2023-04-01T03:30:28;98424.53;;;9.91;97.75
20424;BME280;10371;49.042;8.002;2023-04-01T03:31:31;98428.59;;;9.93;97.87
20424;BME280;10371;49.042;8.002;2023-04-01T03:32:31;98426.69;;;9.95;97.72
20424;BME280;10371;49.042;8.002;2023-04-01T03:33:32;98427.34;;;9.97;97.35
20424;BME280;10371;49.042;8.002;2023-04-01T03:34:33;98427.16;;;9.99;97.15
20424;BME280;10371;49.042;8.002;2023-04-01T03:35:33;98427.84;;;10.01;97.29
20424;BME280;10371;49.042;8.002;2023-04-01T03:36:36;98429.78;;;9.99;97.09
20424;BME280;10371;49.042;8.002;2023-04-01T03:37:36;98420.66;;;9.95;96.86
20424;BME280;10371;49.042;8.002;2023-04-01T03:38:36;98412.34;;;9.91;96.40
20424;BME280;10371;49.042;8.002;2023-04-01T03:39:37;98411.69;;;9.89;96.11
20424;BME280;10371;49.042;8.002;2023-04-01T03:40:37;98418.06;;;9.95;96.04
20424;BME280;10371;49.042;8.002;2023-04-01T03:41:41;98420.00;;;9.93;95.69
20424;BME280;10371;49.042;8.002;2023-04-01T03:42:42;98418.06;;;9.95;95.43
20424;BME280;10371;49.042;8.002;2023-04-01T03:43:43;98423.25;;;9.95;95.29
20424;BME280;10371;49.042;8.002;2023-04-01T03:44:43;98421.63;;;9.94;95.19
20424;BME280;10371;49.042;8.002;2023-04-01T03:45:49;98416.41;;;9.94;95.30
20424;BME280;10371;49.042;8.002;2023-04-01T03:46:50;98409.25;;;9.88;95.17
20424;BME280;10371;49.042;8.002;2023-04-01T03:47:50;98420.81;;;9.93;95.01
20424;BME280;10371;49.042;8.002;2023-04-01T03:48:51;98421.31;;;9.97;94.62
20424;BME280;10371;49.042;8.002;2023-04-01T03:49:51;98419.69;;;9.96;93.66
20424;BME280;10371;49.042;8.002;2023-04-01T03:50:52;98425.91;;;10.03;93.10
20424;BME280;10371;49.042;8.002;2023-04-01T03:51:52;98416.63;;;10.00;93.16
20424;BME280;10371;49.042;8.002;2023-04-01T03:52:52;98418.25;;;10.01;92.77
20424;BME280;10371;49.042;8.002;2023-04-01T03:53:52;98421.84;;;10.00;92.37
20424;BME280;10371;49.042;8.002;2023-04-01T03:54:53;98422.63;;;10.01;91.77
20424;BME280;10371;49.042;8.002;2023-04-01T03:55:53;98417.28;;;10.02;91.58
20424;BME280;10371;49.042;8.002;2023-04-01T03:56:53;98412.25;;;10.01;91.68
20424;BME280;10371;49.042;8.002;2023-04-01T03:57:55;98412.91;;;10.11;91.65
20424;BME280;10371;49.042;8.002;2023-04-01T03:58:55;98417.13;;;10.04;91.72
20424;BME280;10371;49.042;8.002;2023-04-01T03:59:55;98408.34;;;10.05;91.49
20424;BME280;10371;49.042;8.002;2023-04-01T04:00:55;98420.09;;;10.09;91.17
20424;BME280;10371;49.042;8.002;2023-04-01T04:01:56;98418.44;;;10.08;91.28
20424;BME280;10371;49.042;8.002;2023-04-01T04:02:56;98416.00;;;10.06;91.51
20424;BME280;10371;49.042;8.002;2023-04-01T04:03:57;98414.53;;;10.04;91.68
20424;BME280;10371;49.042;8.002;2023-04-01T04:04:58;98420.41;;;10.06;92.11
20424;BME280;10371;49.042;8.002;2023-04-01T04:05:58;98412.75;;;10.04;92.07
20424;BME280;10371;49.042;8.002;2023-04-01T04:06:58;98411.63;;;10.07;91.77
20424;BME280;10371;49.042;8.002;2023-04-01T04:07:59;98407.41;;;10.06;91.44
20424;BME280;10371;49.042;8.002;2023-04-01T04:08:59;98414.22;;;10.07;91.06
20424;BME280;10371;49.042;8.002;2023-04-01T04:09:59;98410.81;;;10.06;90.90
20424;BME280;10371;49.042;8.002;2023-04-01T04:11:00;98413.22;;;10.08;90.61
20424;BME280;10371;49.042;8.002;2023-04-01T04:12:00;98408.34;;;10.05;90.84
20424;BME280;10371;49.042;8.002;2023-04-01T04:13:01;98415.03;;;10.07;90.88
20424;BME280;10371;49.042;8.002;2023-04-01T04:14:01;98422.81;;;10.07;90.70
20424;BME280;10371;49.042;8.002;2023-04-01T04:15:02;98412.44;;;10.07;90.67
20424;BME280;10371;49.042;8.002;2023-04-01T04:16:03;98405.28;;;10.10;90.19
20424;BME280;10371;49.042;8.002;2023-04-01T04:17:03;98407.56;;;10.13;90.14
20424;BME280;10371;49.042;8.002;2023-04-01T04:18:03;98402.03;;;10.07;89.94
20424;BME280;10371;49.042;8.002;2023-04-01T04:19:04;98407.22;;;10.07;90.08
20424;BME280;10371;49.042;8.002;2023-04-01T04:20:05;98405.91;;;10.03;89.98
20424;BME280;10371;49.042;8.002;2023-04-01T04:21:06;98411.94;;;10.04;90.30
20424;BME280;10371;49.042;8.002;2023-04-01T04:22:06;98415.78;;;10.00;90.25
20424;BME280;10371;49.042;8.002;2023-04-01T04:23:06;98411.13;;;10.03;90.15
20424;BME280;10371;49.042;8.002;2023-04-01T04:24:07;98416.81;;;10.07;90.29
20424;BME280;10371;49.042;8.002;2023-04-01T04:25:07;98408.34;;;10.05;90.10
20424;BME280;10371;49.042;8.002;2023-04-01T04:26:10;98414.22;;;10.07;89.81
20424;BME280;10371;49.042;8.002;2023-04-01T04:27:11;98404.78;;;10.06;89.97
20424;BME280;10371;49.042;8.002;2023-04-01T04:28:11;98397.94;;;10.05;89.73
20424;BME280;10371;49.042;8.002;2023-04-01T04:29:12;98407.84;;;10.01;90.15
20424;BME280;10371;49.042;8.002;2023-04-01T04:30:12;98403.78;;;9.99;90.70
20424;BME280;10371;49.042;8.002;2023-04-01T04:31:18;98407.03;;;10.01;90.65
20424;BME280;10371;49.042;8.002;2023-04-01T04:32:19;98406.22;;;10.00;90.63
20424;BME280;10371;49.042;8.002;2023-04-01T04:33:21;98403.63;;;10.00;90.42
20424;BME280;10371;49.042;8.002;2023-04-01T04:34:22;98395.66;;;10.02;90.19
20424;BME280;10371;49.042;8.002;2023-04-01T04:35:22;98399.25;;;10.01;90.12
20424;BME280;10371;49.042;8.002;2023-04-01T04:36:22;98403.97;;;10.05;90.05
20424;BME280;10371;49.042;8.002;2023-04-01T04:37:23;98396.00;;;10.07;89.89
20424;BME280;10371;49.042;8.002;2023-04-01T04:38:24;98394.09;;;10.09;89.84
20424;BME280;10371;49.042;8.002;2023-04-01T04:39:25;98395.22;;;10.06;89.94
20424;BME280;10371;49.042;8.002;2023-04-01T04:40:25;98394.72;;;10.03;90.06
20424;BME280;10371;49.042;8.002;2023-04-01T04:41:25;98391.13;;;10.04;90.11
20424;BME280;10371;49.042;8.002;2023-04-01T04:42:25;98388.34;;;10.05;90.22
20424;BME280;10371;49.042;8.002;2023-04-01T04:43:26;98390.00;;;10.06;90.41
20424;BME280;10371;49.042;8.002;2023-04-01T04:44:26;98388.53;;;10.04;90.38
20424;BME280;10371;49.042;8.002;2023-04-01T04:45:26;98390.81;;;10.07;90.09
20424;BME280;10371;49.042;8.002;2023-04-01T04:46:27;98394.09;;;10.09;89.64
20424;BME280;10371;49.042;8.002;2023-04-01T04:47:27;98388.25;;;10.15;89.16
20424;BME280;10371;49.042;8.002;2023-04-01T04:48:27;98391.34;;;10.19;89.11
20424;BME280;10371;49.042;8.002;2023-04-01T04:49:28;98396.06;;;10.15;88.98
20424;BME280;10371;49.042;8.002;2023-04-01T04:50:28;98384.31;;;10.11;88.97
20424;BME280;10371;49.042;8.002;2023-04-01T04:51:29;98391.16;;;10.12;89.42
20424;BME280;10371;49.042;8.002;2023-04-01T04:52:29;98384.19;;;10.13;89.60
20424;BME280;10371;49.042;8.002;2023-04-01T04:53:30;98383.69;;;10.09;89.40
20424;BME280;10371;49.042;8.002;2023-04-01T04:54:30;98397.94;;;10.05;89.29
20424;BME280;10371;49.042;8.002;2023-04-01T04:55:30;98389.84;;;10.08;89.26
20424;BME280;10371;49.042;8.002;2023-04-01T04:56:31;98394.72;;;10.03;89.59
20424;BME280;10371;49.042;8.002;2023-04-01T04:57:31;98385.44;;;10.00;89.53
20424;BME280;10371;49.042;8.002;2023-04-01T04:58:31;98384.00;;;10.06;89.34
20424;BME280;10371;49.042;8.002;2023-04-01T04:59:32;98384.44;;;10.01;88.91
20424;BME280;10371;49.042;8.002;2023-04-01T05:00:33;98391.13;;;10.04;89.16
20424;BME280;10371;49.042;8.002;2023-04-01T05:01:33;98394.53;;;10.04;89.21
20424;BME280;10371;49.042;8.002;2023-04-01T05:02:34;98395.53;;;10.03;89.48
20424;BME280;10371;49.042;8.002;2023-04-01T05:03:34;98391.13;;;10.04;89.95
20424;BME280;10371;49.042;8.002;2023-04-01T05:04:35;98381.03;;;10.01;89.80
20424;BME280;10371;49.042;8.002;2023-04-01T05:05:37;98401.84;;;10.01;89.44
20424;BME280;10371;49.042;8.002;2023-04-01T05:06:37;98397.44;;;10.01;89.44
20424;BME280;10371;49.042;8.002;2023-04-01T05:07:37;98398.56;;;9.99;89.51
20424;BME280;10371;49.042;8.002;2023-04-01T05:08:38;98396.78;;;9.99;89.66
20424;BME280;10371;49.042;8.002;2023-04-01T05:09:39;98402.97;;;9.98;90.20
20424;BME280;10371;49.042;8.002;2023-04-01T05:10:39;98400.69;;;9.95;90.62
20424;BME280;10371;49.042;8.002;2023-04-01T05:11:40;98401.81;;;9.93;91.29
20424;BME280;10371;49.042;8.002;2023-04-01T05:12:40;98399.69;;;9.96;91.45
20424;BME280;10371;49.042;8.002;2023-04-01T05:13:41;98401.81;;;9.93;91.16
20424;BME280;10371;49.042;8.002;2023-04-01T05:14:41;98403.41;;;9.94;91.23
20424;BME280;10371;49.042;8.002;2023-04-01T05:15:42;98398.44;;;10.00;91.06
20424;BME280;10371;49.042;8.002;2023-04-01T05:16:42;98398.88;;;9.96;90.69
20424;BME280;10371;49.042;8.002;2023-04-01T05:17:42;98393.03;;;9.94;90.51
20424;BME280;10371;49.042;8.002;2023-04-01T05:18:43;98394.31;;;9.90;91.00
20424;BME280;10371;49.042;8.002;2023-04-01T05:19:43;98388.13;;;9.91;91.16
20424;BME280;10371;49.042;8.002;2023-04-01T05:20:51;98381.78;;;9.85;90.98
20424;BME280;10371;49.042;8.002;2023-04-01T05:21:51;98392.88;;;9.95;90.99
20424;BME280;10371;49.042;8.002;2023-04-01T05:22:56;98393.53;;;9.97;90.95
20424;BME280;10371;49.042;8.002;2023-04-01T05:23:57;98383.28;;;9.96;90.95
20424;BME280;10371;49.042;8.002;2023-04-01T05:24:57;98381.66;;;9.95;91.23
20424;BME280;10371;49.042;8.002;2023-04-01T05:25:57;98390.41;;;9.94;91.12
20424;BME280;10371;49.042;8.002;2023-04-01T05:26:58;98387.47;;;9.89;91.12
20424;BME280;10371;49.042;8.002;2023-04-01T05:27:59;98392.53;;;9.90;91.53
20424;BME280;10371;49.042;8.002;2023-04-01T05:28:59;98388.50;;;9.96;91.15
20424;BME280;10371;49.042;8.002;2023-04-01T05:29:59;98381.66;;;9.95;90.99
20424;BME280;10371;49.042;8.002;2023-04-01T05:31:00;98384.91;;;9.97;90.46
20424;BME280;10371;49.042;8.002;2023-04-01T05:32:00;98376.78;;;10.00;90.91
20424;BME280;10371;49.042;8.002;2023-04-01T05:33:01;98385.94;;;10.04;90.79
20424;BME280;10371;49.042;8.002;2023-04-01T05:34:01;98386.59;;;10.06;90.69
20424;BME280;10371;49.042;8.002;2023-04-01T05:35:01;98387.56;;;10.05;90.54
20424;BME280;10371;49.042;8.002;2023-04-01T05:36:09;98387.09;;;10.10;90.40
20424;BME280;10371;49.042;8.002;2023-04-01T05:37:10;98387.91;;;10.10;90.17
20424;BME280;10371;49.042;8.002;2023-04-01T05:38:10;98381.56;;;10.13;90.13
20424;BME280;10371;49.042;8.002;2023-04-01T05:39:11;98391.53;;;10.17;89.66
20424;BME280;10371;49.042;8.002;2023-04-01T05:40:11;98384.66;;;10.16;89.99
20424;BME280;10371;49.042;8.002;2023-04-01T05:41:12;98381.56;;;10.13;90.41
20424;BME280;10371;49.042;8.002;2023-04-01T05:42:12;98392.13;;;10.11;91.05
20424;BME280;10371;49.042;8.002;2023-04-01T05:43:13;98385.78;;;10.14;91.26
20424;BME280;10371;49.042;8.002;2023-04-01T05:44:13;98394.72;;;10.11;91.43
20424;BME280;10371;49.042;8.002;2023-04-01T05:45:13;98381.72;;;10.11;91.56
20424;BME280;10371;49.042;8.002;2023-04-01T05:46:15;98380.09;;;10.10;91.59
20424;BME280;10371;49.042;8.002;2023-04-01T05:47:15;98385.66;;;10.15;91.42